Tiempo atmosférico en la estación meteorológica de Monreal/Elo, Navarra (585 m.)



Fecha
DESCASC
Temp. máxima en grados centígrados (hora)
DESCASC
Temp. mínima en grados centígrados (hora)
DESCASC
Temp. media en grados centígrados
DESCASC
Racha de viento máxima en m/sg (hora)
DESCASC
Velocidad máxima media en intervalos de 10 minutos(hora)
DESCASC
Precipitaciones diarias en mm
DESCASC
Precipitaciones de 00:00 a 06:00 en mm
DESCASC
Precipitaciones de 06:00 a 12:00 en mm
DESCASC
Precipitaciones de 12:00 a 18:00 en mm
DESCASC
Precipitaciones de 18:00 a 24:00 en mm
DESCASC
16-04-2019 18.1 (18:20) 6.7 (07:40) 12.4 7.22 (09:20) 5.28 (09:20) 2.2 2.2 0 0 0
15-04-2019 21.6 (17:10) 7.6 (03:20) 14.6 17.78 (19:30) 13.33 (14:50) 17.2 0 0 0 17.2
14-04-2019 19.4 (15:40) 5 (00:00) 12.2 12.22 (14:10) 8.89 (16:50) 0 0 0 0 0
13-04-2019 20.7 (17:20) 0 (00:00) 10.4 9.72 (00:10) 8.06 (03:30) 0 0 0 0 0
12-04-2019 13.1 (17:00) 5 (00:00) 9.1 19.17 (16:00) 10.83 (09:30) 0 0 0 0 0
11-04-2019 10 (16:30) 4.6 (00:00) 7.3 15.56 (17:40) 9.72 (19:40) 1 0 0.4 0.2 0.4
10-04-2019 12.4 (17:20) 4.6 (00:00) 8.5 14.72 (18:10) 10.83 (18:10) 0.2 0 0.2 0 0
09-04-2019 14.4 (15:10) 1.6 (00:00) 8 11.67 (19:50) 8.06 (19:50) 14.6 0 0 0.6 14
08-04-2019 12.2 (16:30) 5 (00:00) 8.6 9.17 (16:50) 7.22 (02:00) 3.2 0.2 2.6 0.4 0
07-04-2019 12.3 (16:50) 3.4 (00:00) 7.9 7.78 (12:40) 5.83 (12:40) 0 0 0 0 0
06-04-2019 13 (17:20) 2.6 (00:00) 7.8 12.22 (13:10) 6.67 (20:10) 1 0.2 0 0 0.8
05-04-2019 10 (15:20) 3.2 (00:00) 6.6 16.39 (17:30) 12.5 (17:30) 7.6 0 1 0 6.6
04-04-2019 12.3 (17:10) -1.6 (-00:0) 5.4 10.83 (19:00) 6.94 (00:20) 0.2 0 0.2 0 0
03-04-2019 8.9 (15:40) 1.1 (00:00) 5 18.33 (16:00) 11.11 (16:00) 2.4 1.4 0.6 0.4 0
02-04-2019 15.9 (16:40) 4.3 (00:00) 10.1 11.11 (19:40) 8.89 (19:40) 0 0 0 0 0
01-04-2019 13.9 (16:50) 6.2 (00:00) 10 6.67 (18:10) 4.72 (18:10) 1.4 1 0.4 0 0
31-03-2019 15.3 (15:50) 1.4 (00:00) 8.4 7.5 (14:50) 5 (14:50) 0 0 0 0 0
30-03-2019 17.5 (15:40) 4.1 (00:00) 10.8 8.61 (14:40) 6.39 (04:30) 0 0 0 0 0
29-03-2019 17.2 (15:20) 1.1 (00:00) 9.2 15.28 (13:00) 11.39 (13:50) 0 0 0 0 0
28-03-2019 16.3 (15:00) 3.6 (00:00) 9.9 12.22 (15:00) 8.61 (12:40) 0 0 0 0 0
27-03-2019 16.1 (14:10) 1.9 (00:00) 9 16.11 (15:20) 11.67 (17:10) 0 0 0 0 0
26-03-2019 15 (12:30) 3 (00:00) 9 21.67 (14:00) 13.61 (00:10) 0 0 0 0 0
25-03-2019 11.5 (15:30) 5.8 (00:00) 8.7 21.11 (10:20) 14.44 (16:30) 0 0 0 0 0
24-03-2019 19.7 (13:40) 2.9 (00:00) 11.3 14.72 (18:00) 10 (18:20) 0 0 0 0 0
23-03-2019 20.4 (15:30) 1.5 (00:00) 10.9 5.28 (14:10) 3.89 (13:10) 0 0 0 0 0
22-03-2019 18.2 (16:20) 0.4 (00:00) 9.3 8.33 (14:20) 4.44 (13:00) 0 0 0 0 0
21-03-2019 15.1 (15:00) -2.1 (-00:0) 6.5 6.67 (11:50) 5 (11:40) 0 0 0 0 0
20-03-2019 10.1 (14:30) 2.3 (00:00) 6.2 23.06 (10:50) 12.5 (11:30) 0 0 0 0 0
19-03-2019 7.6 (15:30) 2.7 (00:00) 5.1 17.78 (18:00) 11.39 (17:40) 0.8 0.2 0 0 0.6

Gráficas

Temp. máximas Temp. mínimas Temp. medias Precipitaciones Rachas de viento máximas Velocidades máximas media en intervalos de 10 minutos

Datos horarios

Fecha y hora oficial Temperatura (ºC) Velocidad del viento (km/h) Dirección del viento Racha (km/h) Dirección de racha Precipitación (mm) Presión (hPa) Tendencia (hPa) Humedad (%)
2019-04-17 23:00:00 14.6 18 Este 28 Este 0 -- -- 66
2019-04-17 22:00:00 14.2 12 Sudeste 20 Sudeste 0 -- -- 68
2019-04-17 21:00:00 15.8 9 Sudeste 30 Sudeste 0 -- -- 62
2019-04-17 20:00:00 17.2 26 Sudeste 34 Sudeste 0 -- -- 56
2019-04-17 19:00:00 18.1 24 Sudeste 37 Sudeste 0 -- -- 55
2019-04-17 18:00:00 18.5 21 Sudeste 45 Sudeste 0 -- -- 53
2019-04-17 17:00:00 19.7 37 Sudeste 54 Sudeste 0 -- -- 48
2019-04-17 16:00:00 19.4 39 Sudeste 55 Sur 0 -- -- 47
2019-04-17 15:00:00 18.8 36 Sudeste 58 Sudeste 0 -- -- 52
2019-04-17 14:00:00 17.4 28 Sudeste 49 Sudeste 0 -- -- 54
2019-04-17 13:00:00 15 30 Sudeste 41 Sudeste 0 -- -- 60
2019-04-17 12:00:00 13.8 27 Sudeste 35 Sudeste 0 -- -- 64
2019-04-17 11:00:00 12.6 25 Sudeste 38 Sudeste 0 -- -- 64
2019-04-17 10:00:00 11.3 30 Sudeste 42 Sudeste 0 -- -- 70
2019-04-17 09:00:00 11.5 34 Sudeste 50 Sudeste 0 -- -- 66
2019-04-17 08:00:00 9.3 17 Sur 30 Sudeste 0 -- -- 74
2019-04-17 07:00:00 10 26 Sudeste 33 Sudeste 0 -- -- 70
2019-04-17 06:00:00 9.8 20 Sudeste 33 Sudeste 0 -- -- 72
2019-04-17 05:00:00 10 27 Sudeste 42 Sudeste 0 -- -- 70
2019-04-17 04:00:00 11 27 Sudeste 41 Sudeste 0 -- -- 65
2019-04-17 03:00:00 10.9 22 Sudeste 38 Sudeste 0 -- -- 67
2019-04-17 02:00:00 11 32 Sudeste 37 Sudeste 0 -- -- 71
2019-04-17 01:00:00 11.9 30 Sudeste 38 Sudeste 0 -- -- 72
2019-04-17 00:00:00 11.9 16 Sur 25 Sur 0 -- -- 66
2019-04-16 23:00:00 11.4 15 Sudeste 20 Sur 0 -- -- 66
2019-04-16 22:00:00 11.8 9 Sudeste 17 Sudeste 0 -- -- 66
2019-04-16 21:00:00 13.3 9 Sudeste 15 Sudeste 0 -- -- 59
2019-04-16 20:00:00 15.2 12 Sudeste 21 Sudeste 0 -- -- 53
2019-04-16 19:00:00 16.2 15 Sudeste 24 Sudeste 0 -- -- 50
2019-04-16 18:00:00 17.6 9 Sudeste 14 Este 0 -- -- 48
2019-04-16 17:00:00 16.6 12 Noroeste 18 Oeste 0 -- -- 58
2019-04-16 16:00:00 17.1 10 Noroeste 22 Oeste 0 -- -- 54
2019-04-16 15:00:00 16.8 7 Noroeste 17 Noroeste 0 -- -- 59
2019-04-16 14:00:00 15.7 9 Noroeste 15 Noroeste 0 -- -- 56
2019-04-16 13:00:00 14.3 8 Noroeste 14 Noroeste 0 -- -- 63
2019-04-16 12:00:00 12.8 9 Noroeste 18 Noroeste 0 -- -- 72
2019-04-16 11:00:00 11.4 12 Noroeste 19 Noroeste 0 -- -- 76
2019-04-16 10:00:00 10 15 Noroeste 26 Noroeste 0 -- -- 82
2019-04-16 09:00:00 8.5 15 Noroeste 21 Noroeste 0 -- -- 89
2019-04-16 08:00:00 6.7 10 Noroeste 18 Noroeste 0 -- -- 95
2019-04-16 07:00:00 7.3 13 Noroeste 19 Noroeste 0 -- -- 96
2019-04-16 06:00:00 8.1 14 Noroeste 20 Noroeste 0 -- -- 91
2019-04-16 05:00:00 8.5 13 Noroeste 21 Noroeste 0 -- -- 94
2019-04-16 04:00:00 8.6 14 Noroeste 19 Noroeste 0 -- -- 93
2019-04-16 03:00:00 8.7 14 Noroeste 17 Noroeste 0.2 -- -- 93
2019-04-16 02:00:00 8.8 4 Noroeste 7 Norte 0 -- -- 93
2019-04-16 01:00:00 8.5 8 Noroeste 19 Noroeste 2 -- -- 95
2019-04-16 00:00:00 8.7 15 Noroeste 27 Noroeste 1.8 -- -- 95
2019-04-15 23:00:00 9 23 Noroeste 34 Noroeste 3.6 -- -- 94
2019-04-15 22:00:00 9.7 29 Noroeste 49 Oeste 4.2 -- -- 92
2019-04-15 21:00:00 11.5 23 Oeste 38 Noroeste 7 -- -- 96
2019-04-15 20:00:00 11.8 29 Noroeste 64 Oeste 0.6 -- -- 94
2019-04-15 19:00:00 17.5 14 Este 48 Sudeste 0 -- -- 60
2019-04-15 18:00:00 19.1 39 Sudeste 60 Sudeste 0 -- -- 53
2019-04-15 17:00:00 20.8 31 Sudeste 48 Sudeste 0 -- -- 50
2019-04-15 16:00:00 20.5 40 Sudeste 53 Sudeste 0 -- -- 52
2019-04-15 15:00:00 19.4 42 Sudeste 59 Sudeste 0 -- -- 53
2019-04-15 14:00:00 19.3 36 Sudeste 50 Sudeste 0 -- -- 57
2019-04-15 13:00:00 17.9 31 Sudeste 41 Sudeste 0 -- -- 63
2019-04-15 12:00:00 16.3 21 Sudeste 32 Sudeste 0 -- -- 65
2019-04-15 11:00:00 15.6 17 Este 26 Este 0 -- -- 68
2019-04-15 10:00:00 14.6 15 Sudeste 32 Sudeste 0 -- -- 72
2019-04-15 09:00:00 12.2 15 Sudeste 26 Sudeste 0 -- -- 81
2019-04-15 08:00:00 11.9 15 Sudeste 24 Sudeste 0 -- -- 79
2019-04-15 07:00:00 9.7 10 Sudeste 14 Sur 0 -- -- 89
2019-04-15 06:00:00 9 0 Calma 14 Este 0 -- -- 91
2019-04-15 05:00:00 8.4 9 Sudeste 17 Este 0 -- -- 95
2019-04-15 04:00:00 7.7 11 Sudeste 15 Este 0 -- -- 96
2019-04-15 03:00:00 9.2 6 Este 11 Sudeste 0 -- -- 93
2019-04-15 02:00:00 8.1 6 Sudeste 12 Sudeste 0 -- -- 94
2019-04-15 01:00:00 8.9 6 Este 12 Sudeste 0 -- -- 94
2019-04-15 00:00:00 8.6 10 Sudeste 12 Sudeste 0 -- -- 94
2019-04-14 23:00:00 10.2 8 Sudeste 11 Sudeste 0 -- -- 91
2019-04-14 22:00:00 11.1 4 Este 14 Noroeste 0 -- -- 91
2019-04-14 21:00:00 13.1 13 Norte 25 Noroeste 0 -- -- 83
2019-04-14 20:00:00 14.2 22 Noroeste 33 Noroeste 0 -- -- 80
2019-04-14 19:00:00 15.2 20 Norte 35 Noroeste 0 -- -- 73
2019-04-14 18:00:00 16.4 23 Noroeste 43 Noroeste 0 -- -- 64
2019-04-14 17:00:00 17.4 32 Noroeste 44 Noroeste 0 -- -- 62
2019-04-14 16:00:00 18.3 30 Noroeste 42 Noroeste 0 -- -- 57
2019-04-14 15:00:00 19 25 Noroeste 44 Noroeste 0 -- -- 54
2019-04-14 14:00:00 17.9 26 Noroeste 40 Noroeste 0 -- -- 54
2019-04-14 13:00:00 17.2 17 Noroeste 28 Oeste 0 -- -- 53
2019-04-14 12:00:00 15.6 16 Noroeste 26 Oeste 0 -- -- 46
2019-04-14 11:00:00 13.7 15 Noroeste 20 Noroeste 0 -- -- 53
2019-04-14 10:00:00 12.6 4 Noroeste 10 Noroeste 0 -- -- 56
2019-04-14 09:00:00 9 3 Nordeste 6 Sudeste 0 -- -- 63
2019-04-14 08:00:00 7.1 2 Noroeste 6 Norte 0 -- -- 75
2019-04-14 07:00:00 7.1 4 Sudeste 7 Sudeste 0 -- -- 64
2019-04-14 06:00:00 5.8 5 Sudeste 8 Sudeste 0 -- -- 73
2019-04-14 05:00:00 5.7 6 Sudeste 10 Sudeste 0 -- -- 71
2019-04-14 04:00:00 5.7 8 Sudeste 10 Sudeste 0 -- -- 72
2019-04-14 03:00:00 5.5 7 Sudeste 13 Sudeste 0 -- -- 72
2019-04-14 02:00:00 5 10 Sudeste 13 Sudeste 0 -- -- 73
2019-04-14 01:00:00 5.5 8 Sudeste 11 Sudeste 0 -- -- 71
2019-04-14 00:00:00 5.7 10 Sudeste 12 Sudeste 0 -- -- 71
2019-04-13 23:00:00 6.4 10 Sudeste 12 Sudeste 0 -- -- 69
2019-04-13 22:00:00 9.1 8 Este 14 Norte 0 -- -- 55
2019-04-13 21:00:00 13.7 12 Norte 26 Norte 0 -- -- 40
2019-04-13 20:00:00 17.2 16 Norte 27 Norte 0 -- -- 27
2019-04-13 19:00:00 19 15 Noroeste 24 Noroeste 0 -- -- 21
2019-04-13 18:00:00 20 11 Noroeste 23 Oeste 0 -- -- 18
2019-04-13 17:00:00 20.4 15 Oeste 29 Oeste 0 -- -- 19
2019-04-13 16:00:00 19.4 14 Noroeste 31 Oeste 0 -- -- 19
2019-04-13 15:00:00 19.1 20 Oeste 30 Noroeste 0 -- -- 23
2019-04-13 14:00:00 16.9 18 Noroeste 27 Noroeste 0 -- -- 32
2019-04-13 13:00:00 15.1 21 Noroeste 29 Noroeste 0 -- -- 38
2019-04-13 12:00:00 13.4 19 Noroeste 27 Noroeste 0 -- -- 37
2019-04-13 11:00:00 10 17 Noroeste 21 Noroeste 0 -- -- 52
2019-04-13 10:00:00 6.8 5 Norte 9 Norte 0 -- -- 71
2019-04-13 09:00:00 4 0 Calma 6 Sudeste 0 -- -- 80
2019-04-13 08:00:00 0.4 2 Norte 10 Noroeste 0 -- -- 88
2019-04-13 07:00:00 1.4 6 Norte 17 Noroeste 0 -- -- 89
2019-04-13 06:00:00 2.2 12 Noroeste 27 Noroeste 0 -- -- 88
2019-04-13 05:00:00 3.5 18 Noroeste 24 Noroeste 0 -- -- 85
2019-04-13 04:00:00 4.5 21 Noroeste 33 Noroeste 0 -- -- 81
2019-04-13 03:00:00 4.5 24 Noroeste 32 Noroeste 0 -- -- 82
2019-04-13 02:00:00 4.5 23 Noroeste 30 Noroeste 0 -- -- 83
2019-04-13 01:00:00 5.4 25 Noroeste 35 Noroeste 0 -- -- 80
2019-04-13 00:00:00 5 25 Noroeste 41 Noroeste 0 -- -- 84
2019-04-12 23:00:00 6.2 18 Noroeste 32 Noroeste 0 -- -- 77
2019-04-12 22:00:00 7.3 26 Noroeste 40 Noroeste 0 -- -- 72
2019-04-12 21:00:00 8.6 27 Noroeste 37 Noroeste 0 -- -- 65
2019-04-12 20:00:00 10.3 26 Noroeste 40 Norte 0 -- -- 58
2019-04-12 19:00:00 11.6 29 Noroeste 46 Noroeste 0 -- -- 55
2019-04-12 18:00:00 12.3 33 Noroeste 48 Noroeste 0 -- -- 54
2019-04-12 17:00:00 13.1 26 Noroeste 45 Norte 0 -- -- 53
2019-04-12 16:00:00 12.5 35 Norte 69 Noroeste 0 -- -- 52
2019-04-12 15:00:00 12.6 30 Norte 53 Noroeste 0 -- -- 53
2019-04-12 14:00:00 11.9 30 Norte 66 Noroeste 0 -- -- 54
2019-04-12 13:00:00 11 30 Noroeste 67 Noroeste 0 -- -- 54
2019-04-12 12:00:00 10.7 24 Noroeste 60 Noroeste 0 -- -- 62
2019-04-12 11:00:00 9.3 32 Noroeste 49 Norte 0 -- -- 64
2019-04-12 10:00:00 8.4 30 Noroeste 51 Noroeste 0 -- -- 74
2019-04-12 09:00:00 7.1 26 Noroeste 38 Noroeste 0 -- -- 80
2019-04-12 08:00:00 5.9 26 Noroeste 37 Noroeste 0 -- -- 87
2019-04-12 07:00:00 6.3 26 Noroeste 38 Noroeste 0 -- -- 87
2019-04-12 06:00:00 6.2 28 Noroeste 39 Noroeste 0 -- -- 91
2019-04-12 05:00:00 6.2 23 Noroeste 32 Noroeste 0 -- -- 90
2019-04-12 04:00:00 6.2 18 Noroeste 31 Noroeste 0 -- -- 93
2019-04-12 03:00:00 6.6 20 Noroeste 27 Noroeste 0 -- -- 90
2019-04-12 02:00:00 6.6 18 Noroeste 28 Noroeste 0 -- -- 89
2019-04-12 01:00:00 6.7 16 Noroeste 32 Noroeste 0 -- -- 88
2019-04-12 00:00:00 6.6 27 Noroeste 38 Noroeste 0 -- -- 88
2019-04-11 23:00:00 6.4 21 Noroeste 31 Noroeste 0 -- -- 85
2019-04-11 22:00:00 6.3 21 Noroeste 38 Noroeste 0 -- -- 82
2019-04-11 21:00:00 6.8 28 Noroeste 44 Noroeste 0 -- -- 81
2019-04-11 20:00:00 7.6 32 Noroeste 53 Noroeste 0 -- -- 84
2019-04-11 19:00:00 7.7 16 Norte 48 Norte 0.4 -- -- 89
2019-04-11 18:00:00 8.6 27 Norte 56 Norte 0 -- -- 76
2019-04-11 17:00:00 10 31 Noroeste 45 Noroeste 0.2 -- -- 72
2019-04-11 16:00:00 8.9 30 Noroeste 44 Noroeste 0 -- -- 80
2019-04-11 15:00:00 9.1 29 Noroeste 43 Noroeste 0 -- -- 80
2019-04-11 14:00:00 8.4 30 Noroeste 43 Noroeste 0 -- -- 82
2019-04-11 13:00:00 7.6 27 Noroeste 43 Noroeste 0 -- -- 85
2019-04-11 12:00:00 7.5 28 Noroeste 42 Noroeste 0 -- -- 87
2019-04-11 11:00:00 6.4 23 Noroeste 32 Noroeste 0 -- -- 94
2019-04-11 10:00:00 5.6 19 Noroeste 26 Noroeste 0.2 -- -- 96
2019-04-11 09:00:00 5.3 21 Noroeste 28 Noroeste 0.2 -- -- 96
2019-04-11 08:00:00 5 19 Noroeste 33 Noroeste 0 -- -- 94
2019-04-11 07:00:00 4.9 23 Noroeste 30 Noroeste 0 -- -- 92
2019-04-11 06:00:00 5.1 23 Noroeste 35 Oeste 0 -- -- 92
2019-04-11 05:00:00 5.4 22 Noroeste 32 Oeste 0 -- -- 96
2019-04-11 04:00:00 5.2 20 Noroeste 27 Noroeste 0 -- -- 96
2019-04-11 03:00:00 5.3 19 Noroeste 29 Noroeste 0 -- -- 96
2019-04-11 02:00:00 5.6 19 Noroeste 30 Noroeste 0 -- -- 95
2019-04-11 01:00:00 5.9 19 Noroeste 29 Noroeste 0 -- -- 93
2019-04-11 00:00:00 6.1 20 Noroeste 28 Noroeste 0 -- -- 85
2019-04-10 23:00:00 6.1 24 Noroeste 38 Noroeste 0 -- -- 83
2019-04-10 22:00:00 6.9 33 Noroeste 46 Noroeste 0 -- -- 78
2019-04-10 21:00:00 7.2 30 Noroeste 44 Noroeste 0 -- -- 81
2019-04-10 20:00:00 8.6 29 Norte 50 Norte 0 -- -- 73
2019-04-10 19:00:00 10 32 Norte 53 Norte 0 -- -- 61
2019-04-10 18:00:00 11.3 37 Norte 52 Norte 0 -- -- 60
2019-04-10 17:00:00 11.8 24 Noroeste 41 Norte 0 -- -- 63
2019-04-10 16:00:00 10.2 28 Norte 48 Norte 0 -- -- 70
2019-04-10 15:00:00 11.9 26 Noroeste 42 Noroeste 0 -- -- 66
2019-04-10 14:00:00 10.4 30 Noroeste 42 Noroeste 0 -- -- 68
2019-04-10 13:00:00 9 28 Noroeste 39 Noroeste 0 -- -- 81
2019-04-10 12:00:00 8.7 29 Noroeste 40 Noroeste 0 -- -- 80
2019-04-10 11:00:00 6.7 18 Noroeste 29 Noroeste 0.2 -- -- 92
2019-04-10 10:00:00 5.9 21 Noroeste 30 Noroeste 0 -- -- 90
2019-04-10 09:00:00 5.5 21 Noroeste 26 Noroeste 0 -- -- 92
2019-04-10 08:00:00 4.8 15 Noroeste 24 Noroeste 0 -- -- 96
2019-04-10 07:00:00 5 14 Noroeste 24 Noroeste 0 -- -- 95
2019-04-10 06:00:00 5.1 16 Noroeste 22 Noroeste 0 -- -- 94
2019-04-10 05:00:00 4.8 8 Noroeste 19 Noroeste 0 -- -- 96
2019-04-10 04:00:00 5.1 15 Noroeste 22 Noroeste 0 -- -- 97
2019-04-10 03:00:00 5.3 13 Noroeste 18 Noroeste 0 -- -- 95
2019-04-10 02:00:00 5.6 6 Norte 13 Noroeste 0 -- -- 90
2019-04-10 01:00:00 5.6 8 Noroeste 11 Noroeste 0 -- -- 93
2019-04-10 00:00:00 5.7 8 Norte 21 Noroeste 0.8 -- -- 95
2019-04-09 23:00:00 5.8 16 Noroeste 25 Noroeste 2.4 -- -- 97
2019-04-09 22:00:00 6.1 16 Noroeste 25 Noroeste 1.4 -- -- 94
2019-04-09 21:00:00 6.4 14 Noroeste 33 Oeste 6.6 -- -- 95
2019-04-09 20:00:00 6.6 23 Oeste 42 Oeste 2.8 -- -- 93
2019-04-09 19:00:00 10.3 9 Noroeste 28 Noroeste 0 -- -- 71
2019-04-09 18:00:00 11.8 10 Noroeste 25 Noroeste 0 -- -- 61
2019-04-09 17:00:00 13.1 9 Noroeste 21 Norte 0 -- -- 57
2019-04-09 16:00:00 11.7 18 Norte 35 Oeste 0.6 -- -- 65
2019-04-09 15:00:00 13.1 14 Noroeste 27 Noroeste 0 -- -- 53
2019-04-09 14:00:00 13.8 8 Oeste 28 Noroeste 0 -- -- 54
2019-04-09 13:00:00 10.9 23 Noroeste 35 Noroeste 0 -- -- 60
2019-04-09 12:00:00 10.4 21 Noroeste 35 Noroeste 0 -- -- 64
2019-04-09 11:00:00 9.5 17 Noroeste 27 Noroeste 0 -- -- 70
2019-04-09 10:00:00 9.4 3 Nordeste 6 Norte 0 -- -- 69
2019-04-09 09:00:00 4.7 2 Sudeste 8 Sudeste 0 -- -- 88
2019-04-09 08:00:00 1.6 4 Sudeste 8 Sudeste 0 -- -- 94
2019-04-09 07:00:00 1.7 4 Sudeste 9 Sudeste 0 -- -- 95
2019-04-09 06:00:00 1.6 4 Este 9 Sudeste 0 -- -- 96
2019-04-09 05:00:00 1.9 6 Sudeste 12 Sudeste 0 -- -- 97
2019-04-09 04:00:00 2.2 7 Sudeste 11 Sudeste 0 -- -- 96
2019-04-09 03:00:00 2.7 6 Sudeste 10 Sudeste 0 -- -- 97
2019-04-09 02:00:00 3.5 7 Sudeste 9 Sudeste 0 -- -- 95
2019-04-09 01:00:00 4.6 5 Sudeste 9 Sudeste 0 -- -- 93
2019-04-09 00:00:00 5 6 Sudeste 10 Sudeste 0 -- -- 92
2019-04-08 23:00:00 6.5 0 Calma 13 Noroeste 0 -- -- 88
2019-04-08 22:00:00 8.1 8 Norte 14 Oeste 0 -- -- 83
2019-04-08 21:00:00 8.4 8 Norte 20 Norte 0 -- -- 81
2019-04-08 20:00:00 9.6 14 Noroeste 24 Norte 0 -- -- 75
2019-04-08 19:00:00 9.9 13 Norte 27 Norte 0 -- -- 77
2019-04-08 18:00:00 10.8 17 Noroeste 30 Noroeste 0 -- -- 78
2019-04-08 17:00:00 10.3 22 Noroeste 33 Noroeste 0 -- -- 83
2019-04-08 16:00:00 10.7 15 Noroeste 21 Noroeste 0 -- -- 89
2019-04-08 15:00:00 11.2 6 Noroeste 12 Oeste 0 -- -- 82
2019-04-08 14:00:00 9.2 2 Norte 9 Norte 0.4 -- -- 91
2019-04-08 13:00:00 9 6 Sur 24 Sudeste 0 -- -- 86
2019-04-08 12:00:00 8.2 21 Sudeste 25 Sudeste 0.2 -- -- 88
2019-04-08 11:00:00 7 18 Sudeste 25 Sudeste 0 -- -- 89
2019-04-08 10:00:00 6.3 16 Sudeste 21 Sudeste 1 -- -- 91
2019-04-08 09:00:00 6 9 Sudeste 16 Sur 0.6 -- -- 92
2019-04-08 08:00:00 5.9 8 Sur 21 Sudeste 0.4 -- -- 91
2019-04-08 07:00:00 6 16 Sur 22 Sur 0.4 -- -- 88
2019-04-08 06:00:00 6.4 12 Sur 24 Sudeste 0.2 -- -- 87
2019-04-08 05:00:00 7.6 19 Sudeste 32 Este 0 -- -- 75
2019-04-08 04:00:00 7.5 12 Sudeste 28 Sudeste 0 -- -- 73
2019-04-08 03:00:00 7.6 19 Sudeste 32 Sudeste 0 -- -- 70
2019-04-08 02:00:00 7.9 26 Sudeste 32 Sudeste 0 -- -- 69
2019-04-08 01:00:00 6.8 9 Sudeste 14 Sudeste 0 -- -- 75
2019-04-08 00:00:00 6.4 5 Sudeste 12 Sur 0 -- -- 80
2019-04-07 23:00:00 6 9 Sudeste 12 Sudeste 0 -- -- 83
2019-04-07 22:00:00 5.7 8 Sudeste 10 Sudeste 0 -- -- 86
2019-04-07 21:00:00 6.5 7 Sudeste 9 Sudeste 0 -- -- 83
2019-04-07 20:00:00 9.9 2 Sur 9 Oeste 0 -- -- 63
2019-04-07 19:00:00 11.7 3 Noroeste 15 Noroeste 0 -- -- 59
2019-04-07 18:00:00 10.9 6 Norte 25 Noroeste 0 -- -- 66
2019-04-07 17:00:00 12.3 14 Noroeste 25 Noroeste 0 -- -- 57
2019-04-07 16:00:00 11.2 12 Noroeste 26 Noroeste 0 -- -- 64
2019-04-07 15:00:00 11.9 15 Noroeste 27 Oeste 0 -- -- 59
2019-04-07 14:00:00 9.4 16 Noroeste 27 Noroeste 0 -- -- 72
2019-04-07 13:00:00 8.3 16 Noroeste 28 Oeste 0 -- -- 75
2019-04-07 12:00:00 7.6 18 Noroeste 27 Noroeste 0 -- -- 81
2019-04-07 11:00:00 7.1 14 Noroeste 21 Noroeste 0 -- -- 79
2019-04-07 10:00:00 5.1 9 Noroeste 17 Noroeste 0 -- -- 95
2019-04-07 09:00:00 4.3 6 Noroeste 8 Noroeste 0 -- -- 98
2019-04-07 08:00:00 3.4 4 Sudeste 6 Sudeste 0 -- -- 98
2019-04-07 07:00:00 3.5 2 Sur 4 Sudeste 0 -- -- 98
2019-04-07 06:00:00 3.5 0 Calma 10 Noroeste 0 -- -- 97
2019-04-07 05:00:00 4.1 9 Noroeste 14 Noroeste 0 -- -- 97
2019-04-07 04:00:00 4.1 4 Noroeste 6 Noroeste 0 -- -- 95
2019-04-07 03:00:00 4.4 4 Este 8 Noroeste 0 -- -- 94
2019-04-07 02:00:00 4.5 3 Oeste 7 Noroeste 0 -- -- 92
2019-04-07 01:00:00 4.4 3 Sur 9 Sudeste 0 -- -- 89
2019-04-07 00:00:00 4.6 5 Sur 15 Sudeste 0 -- -- 87
2019-04-06 23:00:00 5 11 Sudeste 29 Sudoeste 0.8 -- -- 83
2019-04-06 22:00:00 6.8 23 Sudoeste 34 Sudoeste 0 -- -- 73
2019-04-06 21:00:00 7.8 9 Sudeste 33 Sur 0 -- -- 70
2019-04-06 20:00:00 9.1 23 Sudeste 32 Sur 0 -- -- 60
2019-04-06 19:00:00 10.3 18 Sur 28 Sudoeste 0 -- -- 57
2019-04-06 18:00:00 12.2 13 Sudoeste 33 Oeste 0 -- -- 43
2019-04-06 17:00:00 12.4 16 Sur 32 Sudoeste 0 -- -- 48
2019-04-06 16:00:00 11.3 14 Sudoeste 36 Sur 0 -- -- 55
2019-04-06 15:00:00 11 18 Sur 36 Sudoeste 0 -- -- 52
2019-04-06 14:00:00 9.8 14 Sudoeste 44 Sudoeste 0 -- -- 55
2019-04-06 13:00:00 10.2 17 Sur 39 Sur 0 -- -- 60
2019-04-06 12:00:00 9.2 12 Sur 26 Sur 0 -- -- 64
2019-04-06 11:00:00 6.6 16 Noroeste 26 Noroeste 0 -- -- 73
2019-04-06 10:00:00 5.2 5 Noroeste 15 Noroeste 0 -- -- 79
2019-04-06 09:00:00 4.1 8 Noroeste 16 Noroeste 0 -- -- 88
2019-04-06 08:00:00 2.7 6 Sudeste 9 Sudeste 0 -- -- 96
2019-04-06 07:00:00 3.2 4 Norte 6 Norte 0 -- -- 95
2019-04-06 06:00:00 3.1 2 Oeste 3 Noroeste 0 -- -- 94
2019-04-06 05:00:00 3.1 3 Norte 9 Oeste 0 -- -- 97
2019-04-06 04:00:00 2.9 0 Calma 5 Este 0 -- -- 97
2019-04-06 03:00:00 2.9 0 Calma 4 Sudeste 0 -- -- 96
2019-04-06 02:00:00 2.9 0 Calma 6 Sudeste 0 -- -- 96
2019-04-06 01:00:00 3.1 5 Sudeste 8 Este 0.2 -- -- 95
2019-04-06 00:00:00 3.2 3 Sudeste 9 Este 1.4 -- -- 95
2019-04-05 23:00:00 3.5 4 Este 10 Este 2.6 -- -- 94
2019-04-05 22:00:00 4.1 0 Calma 27 Oeste 2.6 -- -- 92
2019-04-05 21:00:00 6.4 18 Sudeste 28 Sur 0 -- -- 78
2019-04-05 20:00:00 7 27 Sudeste 46 Sudeste 0 -- -- 78
2019-04-05 19:00:00 8.7 25 Sudeste 47 Sudeste 0 -- -- 71
2019-04-05 18:00:00 8.8 36 Sudeste 59 Sudeste 0 -- -- 73
2019-04-05 17:00:00 9.6 34 Sudeste 47 Sudeste 0 -- -- 68
2019-04-05 16:00:00 9.7 25 Sudeste 42 Sudeste 0 -- -- 71
2019-04-05 15:00:00 9 28 Sudeste 47 Sudeste 0 -- -- 77
2019-04-05 14:00:00 8.6 31 Sudeste 41 Sudeste 0 -- -- 74
2019-04-05 13:00:00 7.8 24 Sudeste 40 Sudeste 0 -- -- 79
2019-04-05 12:00:00 8 29 Sudeste 47 Sudeste 0 -- -- 80
2019-04-05 11:00:00 6.4 32 Sudeste 52 Sudeste 0 -- -- 87
2019-04-05 10:00:00 5.1 29 Sudeste 52 Sudeste 0.8 -- -- 90
2019-04-05 09:00:00 4.8 41 Sudeste 53 Sudeste 0.2 -- -- 88
2019-04-05 08:00:00 5 28 Sudeste 47 Sudeste 0 -- -- 84
2019-04-05 07:00:00 7 33 Sudeste 47 Sudeste 0 -- -- 61
2019-04-05 06:00:00 7.9 26 Sudeste 38 Sudeste 0 -- -- 49
2019-04-05 05:00:00 7.5 24 Sudeste 40 Sudeste 0 -- -- 49
2019-04-05 04:00:00 7.2 27 Sudeste 45 Sudeste 0 -- -- 47
2019-04-05 03:00:00 7.4 36 Sudeste 44 Sudeste 0 -- -- 45
2019-04-05 02:00:00 7 21 Sudeste 27 Sur 0 -- -- 52
2019-04-05 01:00:00 8.1 17 Sur 27 Sur 0 -- -- 46
2019-04-05 00:00:00 7.4 10 Sudeste 24 Sudeste 0 -- -- 53
2019-04-04 23:00:00 8.1 21 Sudeste 27 Sudeste 0 -- -- 49
2019-04-04 22:00:00 7.8 10 Sur 19 Sudeste 0 -- -- 52
2019-04-04 21:00:00 8.2 9 Sur 28 Sudeste 0 -- -- 51
2019-04-04 20:00:00 9.3 18 Sudeste 33 Sudeste 0 -- -- 47
2019-04-04 19:00:00 10.6 25 Sudeste 39 Sudeste 0 -- -- 42
2019-04-04 18:00:00 10.5 18 Sur 38 Sur 0 -- -- 42
2019-04-04 17:00:00 11.6 15 Sudoeste 33 Sur 0 -- -- 41
2019-04-04 16:00:00 10.2 9 Este 23 Sudoeste 0 -- -- 45
2019-04-04 15:00:00 8.2 5 Nordeste 11 Nordeste 0 -- -- 51
2019-04-04 14:00:00 6.7 7 Sudeste 20 Este 0 -- -- 58
2019-04-04 13:00:00 7.4 13 Noroeste 24 Noroeste 0 -- -- 58
2019-04-04 12:00:00 4.9 10 Noroeste 19 Norte 0 -- -- 70
2019-04-04 11:00:00 5.3 8 Noroeste 16 Noroeste 0 -- -- 67
2019-04-04 10:00:00 2.4 0 Calma 5 Este 0.2 -- -- 91
2019-04-04 09:00:00 -0.6 4 Este 7 Sudeste 0 -- -- 95
2019-04-04 08:00:00 -1 3 Sudeste 9 Sudeste 0 -- -- 95
2019-04-04 07:00:00 -1.6 6 Sudeste 8 Sudeste 0 -- -- 95
2019-04-04 06:00:00 -0.8 2 Nordeste 4 Nordeste 0 -- -- 96
2019-04-04 05:00:00 -0.5 3 Este 8 Noroeste 0 -- -- 97
2019-04-04 04:00:00 0 4 Noroeste 12 Noroeste 0 -- -- 96
2019-04-04 03:00:00 -0.6 4 Este 10 Noroeste 0 -- -- 98
2019-04-04 02:00:00 -0.3 5 Norte 16 Oeste 0 -- -- 98
2019-04-04 01:00:00 0 14 Noroeste 36 Noroeste 0 -- -- 95
2019-04-04 00:00:00 1.5 19 Noroeste 33 Noroeste 0 -- -- 81
2019-04-03 23:00:00 2.6 23 Noroeste 33 Noroeste 0 -- -- 73
2019-04-03 22:00:00 2.5 24 Noroeste 55 Noroeste 0 -- -- 73
2019-04-03 21:00:00 2.6 13 Noroeste 32 Noroeste 0 -- -- 76
2019-04-03 20:00:00 4.2 27 Noroeste 43 Noroeste 0 -- -- 69
2019-04-03 19:00:00 5.5 28 Noroeste 46 Noroeste 0 -- -- 64
2019-04-03 18:00:00 5.2 34 Noroeste 46 Noroeste 0 -- -- 68
2019-04-03 17:00:00 5.9 27 Noroeste 61 Noroeste 0.2 -- -- 77
2019-04-03 16:00:00 6.8 40 Noroeste 66 Noroeste 0.2 -- -- 64
2019-04-03 15:00:00 8.7 26 Noroeste 41 Noroeste 0 -- -- 60
2019-04-03 14:00:00 7.7 32 Noroeste 49 Noroeste 0 -- -- 73
2019-04-03 13:00:00 6.5 24 Noroeste 37 Noroeste 0 -- -- 75
2019-04-03 12:00:00 5.7 21 Noroeste 33 Noroeste 0 -- -- 83
2019-04-03 11:00:00 4.8 22 Noroeste 31 Noroeste 0.2 -- -- 91
2019-04-03 10:00:00 5 12 Noroeste 18 Noroeste 0.2 -- -- 94
2019-04-03 09:00:00 4.8 15 Noroeste 19 Noroeste 0 -- -- 93
2019-04-03 08:00:00 4.7 8 Noroeste 10 Noroeste 0.2 -- -- 94
2019-04-03 07:00:00 4.8 8 Noroeste 14 Norte 0 -- -- 92
2019-04-03 06:00:00 5.2 11 Norte 29 Noroeste 0 -- -- 89
2019-04-03 05:00:00 5.7 20 Noroeste 26 Noroeste 0.4 -- -- 92
2019-04-03 04:00:00 5.9 10 Noroeste 28 Noroeste 0.6 -- -- 93
2019-04-03 03:00:00 6.4 18 Noroeste 27 Noroeste 0.2 -- -- 92
2019-04-03 02:00:00 6.9 16 Noroeste 27 Noroeste 0.2 -- -- 90
2019-04-03 01:00:00 7.7 20 Noroeste 26 Noroeste 0 -- -- 84
2019-04-03 00:00:00 8.5 16 Noroeste 21 Noroeste 0 -- -- 78
2019-04-02 23:00:00 8.2 13 Noroeste 20 Noroeste 0 -- -- 79
2019-04-02 22:00:00 8.4 15 Noroeste 23 Noroeste 0 -- -- 79
2019-04-02 21:00:00 9.2 18 Noroeste 28 Noroeste 0 -- -- 74
2019-04-02 20:00:00 10.3 24 Noroeste 40 Noroeste 0 -- -- 67
2019-04-02 19:00:00 13 23 Noroeste 34 Noroeste 0 -- -- 58
2019-04-02 18:00:00 14.4 28 Noroeste 36 Noroeste 0 -- -- 54
2019-04-02 17:00:00 15.6 23 Noroeste 35 Noroeste 0 -- -- 43
2019-04-02 16:00:00 15.4 24 Noroeste 36 Noroeste 0 -- -- 47
2019-04-02 15:00:00 14.9 18 Noroeste 36 Noroeste 0 -- -- 49
2019-04-02 14:00:00 14.5 22 Noroeste 32 Noroeste 0 -- -- 53
2019-04-02 13:00:00 13.7 23 Noroeste 32 Oeste 0 -- -- 61
2019-04-02 12:00:00 12.6 15 Noroeste 27 Oeste 0 -- -- 71
2019-04-02 11:00:00 10.2 15 Noroeste 21 Oeste 0 -- -- 82
2019-04-02 10:00:00 8.4 7 Noroeste 13 Noroeste 0 -- -- 96
2019-04-02 09:00:00 6.8 5 Noroeste 9 Noroeste 0 -- -- 96
2019-04-02 08:00:00 6.5 3 Sudeste 6 Sudeste 0 -- -- 97
2019-04-02 07:00:00 5.9 5 Sudeste 9 Este 0 -- -- 97
2019-04-02 06:00:00 5.1 7 Sudeste 10 Sudeste 0 -- -- 97
2019-04-02 05:00:00 4.3 8 Sudeste 11 Sudeste 0 -- -- 98
2019-04-02 04:00:00 5 9 Sudeste 10 Sudeste 0 -- -- 97
2019-04-02 03:00:00 6.2 8 Sudeste 10 Sudeste 0 -- -- 96
2019-04-02 02:00:00 7.4 3 Sur 10 Sudeste 0 -- -- 95
2019-04-02 01:00:00 9.5 3 Noroeste 5 Norte 0 -- -- 91
2019-04-02 00:00:00 9.6 0 Calma 14 Sudeste 0 -- -- 90
2019-04-01 23:00:00 10.6 11 Sudeste 16 Sudeste 0 -- -- 85
2019-04-01 22:00:00 10.7 2 Sur 5 Noroeste 0 -- -- 85
2019-04-01 21:00:00 10.9 5 Noroeste 15 Noroeste 0 -- -- 82
2019-04-01 20:00:00 12 11 Sudeste 17 Este 0 -- -- 78
2019-04-01 19:00:00 12.9 13 Este 24 Sudeste 0 -- -- 75
2019-04-01 18:00:00 13.4 10 Este 18 Sudeste 0 -- -- 72
2019-04-01 17:00:00 13.7 9 Sudeste 17 Sudeste 0 -- -- 67
2019-04-01 16:00:00 12.7 8 Sudeste 15 Sur 0 -- -- 70
2019-04-01 15:00:00 11.6 10 Sur 18 Sur 0 -- -- 80
2019-04-01 14:00:00 10.5 8 Sur 15 Sur 0 -- -- 83
2019-04-01 13:00:00 9.5 3 Noroeste 10 Noroeste 0 -- -- 87
2019-04-01 12:00:00 9.6 5 Noroeste 8 Noroeste 0 -- -- 88
2019-04-01 11:00:00 9.1 0 Calma 9 Sur 0 -- -- 92
2019-04-01 10:00:00 7.8 7 Sur 12 Sur 0 -- -- 92
2019-04-01 09:00:00 6.9 4 Sudeste 11 Sudeste 0 -- -- 94
2019-04-01 08:00:00 6.5 3 Sudeste 4 Sudeste 0.2 -- -- 96
2019-04-01 07:00:00 6.2 3 Este 6 Sudeste 0.2 -- -- 97
2019-04-01 06:00:00 6.2 5 Sudeste -- -- 0.2 -- -- 96
2019-04-01 05:00:00 6.2 0 Calma 5 Noroeste 0.8 -- -- 94
2019-04-01 04:00:00 6.6 2 Norte 8 Noroeste 0 -- -- 91
2019-04-01 03:00:00 7.1 0 Calma 6 Noroeste 0 -- -- 86
2019-04-01 02:00:00 7.8 4 Sudeste 8 Noroeste 0 -- -- 80
2019-04-01 01:00:00 8.5 7 Oeste 11 Sur 0 -- -- 74
2019-04-01 00:00:00 9.1 5 Sur 15 Sudoeste 0 -- -- 68
2019-03-31 23:00:00 9.5 8 Sur 20 Sur 0 -- -- 67
2019-03-31 22:00:00 10.1 14 Sudeste 23 Sur 0 -- -- 62
2019-03-31 21:00:00 10.6 12 Sudeste 17 Sur 0 -- -- 53
2019-03-31 20:00:00 11.5 8 Sur 25 Sur 0 -- -- 56
2019-03-31 19:00:00 12.4 16 Sur 24 Sur 0 -- -- 57
2019-03-31 18:00:00 14.1 16 Sur 21 Sur 0 -- -- 56
2019-03-31 17:00:00 15 4 Sudeste 17 Noroeste 0 -- -- 55
2019-03-31 16:00:00 14.4 13 Noroeste 22 Oeste 0 -- -- 58
2019-03-31 15:00:00 14.8 18 Noroeste 27 Noroeste 0 -- -- 58
2019-03-31 14:00:00 14.3 15 Noroeste 23 Noroeste 0 -- -- 62
2019-03-31 13:00:00 12.6 16 Noroeste 22 Oeste 0 -- -- 62
2019-03-31 12:00:00 11.8 9 Noroeste 13 Noroeste 0 -- -- 64
2019-03-31 11:00:00 9.7 9 Noroeste 13 Noroeste 0 -- -- 70
2019-03-31 10:00:00 7.6 0 Calma 10 Sudeste 0 -- -- 74
2019-03-31 09:00:00 3.2 7 Sudeste 12 Sudeste 0 -- -- 87
2019-03-31 08:00:00 1.6 8 Sudeste 10 Sudeste 0 -- -- 90
2019-03-31 07:00:00 2.9 6 Sudeste 9 Sudeste 0 -- -- 87
2019-03-31 06:00:00 3.6 6 Sudeste 13 Sudeste 0 -- -- 84
2019-03-31 05:00:00 4.7 7 Sudeste 14 Sudeste 0 -- -- 79
2019-03-31 03:00:00 5.1 7 Sudeste 10 Sudeste 0 -- -- 71
2019-03-31 01:00:00 5.1 8 Sudeste 12 Sudeste 0 -- -- 71
2019-03-31 00:00:00 6 12 Sudeste 17 Sudeste 0 -- -- 68
2019-03-30 23:00:00 6.7 12 Sudeste 15 Sudeste 0 -- -- 68
2019-03-30 22:00:00 6.8 11 Sudeste 15 Sudeste 0 -- -- 70
2019-03-30 21:00:00 8.9 6 Sudeste 10 Sudeste 0 -- -- 60
2019-03-30 20:00:00 11.1 5 Sudeste 12 Sur 0 -- -- 52
2019-03-30 19:00:00 12.9 10 Sur 19 Sur 0 -- -- 47
2019-03-30 18:00:00 16.1 14 Sur 22 Sur 0 -- -- 37
2019-03-30 17:00:00 17.1 13 Sur 25 Sur 0 -- -- 35
2019-03-30 16:00:00 17 14 Sur 28 Sudeste 0 -- -- 34
2019-03-30 15:00:00 17.4 17 Sur 31 Sudeste 0 -- -- 39
2019-03-30 14:00:00 16.2 18 Sur 31 Sudoeste 0 -- -- 38
2019-03-30 13:00:00 15.1 18 Sudeste 29 Sudeste 0 -- -- 41
2019-03-30 12:00:00 13.8 20 Sudeste 30 Sudeste 0 -- -- 50
2019-03-30 11:00:00 12.4 18 Sudeste 27 Este 0 -- -- 47
2019-03-30 10:00:00 11.5 16 Sur 24 Sur 0 -- -- 51
2019-03-30 09:00:00 10 13 Sudeste 21 Sudeste 0 -- -- 55
2019-03-30 08:00:00 5.9 10 Sudeste 17 Sudeste 0 -- -- 69
2019-03-30 07:00:00 4.7 11 Sudeste 15 Sudeste 0 -- -- 70
2019-03-30 06:00:00 5.7 9 Sudeste 23 Sur 0 -- -- 64
2019-03-30 05:00:00 5.3 20 Sudeste 27 Sudeste 0 -- -- 68
2019-03-30 04:00:00 6 18 Sudeste 23 Sudeste 0 -- -- 64
2019-03-30 03:00:00 7.4 18 Sudeste 24 Sudeste 0 -- -- 60
2019-03-30 02:00:00 7.4 17 Sudeste 22 Sudeste 0 -- -- 61
2019-03-30 01:00:00 7.5 18 Sudeste 28 Sudeste 0 -- -- 63
2019-03-30 00:00:00 8.5 22 Sudeste 29 Sudeste 0 -- -- 60
2019-03-29 23:00:00 9.1 23 Sudeste 33 Sudeste 0 -- -- 58
2019-03-29 22:00:00 10.9 25 Sudeste 37 Sudeste 0 -- -- 50
2019-03-29 21:00:00 12.5 32 Sudeste 42 Este 0 -- -- 42
2019-03-29 20:00:00 12.1 23 Sudeste 32 Sudeste 0 -- -- 44
2019-03-29 19:00:00 14 24 Sudeste 36 Sudeste 0 -- -- 40
2019-03-29 18:00:00 16 26 Sudeste 42 Sur 0 -- -- 37
2019-03-29 17:00:00 16.6 30 Sudeste 45 Sur 0 -- -- 36
2019-03-29 16:00:00 17.1 29 Sudeste 48 Sudeste 0 -- -- 33
2019-03-29 15:00:00 16.7 36 Sudeste 50 Sudeste 0 -- -- 30
2019-03-29 14:00:00 16.1 39 Sudeste 55 Sudeste 0 -- -- 33
2019-03-29 13:00:00 15.9 36 Sudeste 55 Sudeste 0 -- -- 36
2019-03-29 12:00:00 14.6 36 Sudeste 53 Sur 0 -- -- 42
2019-03-29 11:00:00 13.8 23 Sudeste 36 Sudeste 0 -- -- 43
2019-03-29 10:00:00 11.2 24 Sudeste 30 Sudeste 0 -- -- 49
2019-03-29 09:00:00 9.9 14 Sudeste 23 Sudeste 0 -- -- 54
2019-03-29 08:00:00 4.7 9 Sudeste 13 Sudeste 0 -- -- 81
2019-03-29 07:00:00 2.7 10 Sudeste 14 Sudeste 0 -- -- 83
2019-03-29 06:00:00 1.7 12 Sudeste 14 Sudeste 0 -- -- 90
2019-03-29 05:00:00 2.2 7 Sudeste 10 Este 0 -- -- 89
2019-03-29 04:00:00 1.3 6 Sudeste 12 Sudeste 0 -- -- 92
2019-03-29 03:00:00 1.2 9 Sudeste 13 Sudeste 0 -- -- 91
2019-03-29 02:00:00 1.3 8 Sudeste 10 Sudeste 0 -- -- 91
2019-03-29 01:00:00 2.2 5 Sudeste 9 Sudeste 0 -- -- 88
2019-03-29 00:00:00 3.6 0 Calma 5 Sudeste 0 -- -- 85
2019-03-28 23:00:00 5 5 Noroeste 24 Noroeste 0 -- -- 80
2019-03-28 22:00:00 6.8 19 Noroeste 25 Noroeste 0 -- -- 73
2019-03-28 21:00:00 8.1 20 Noroeste 32 Noroeste 0 -- -- 65
2019-03-28 20:00:00 9.5 22 Noroeste 32 Noroeste 0 -- -- 60
2019-03-28 19:00:00 11.4 19 Noroeste 32 Norte 0 -- -- 56
2019-03-28 18:00:00 14 24 Noroeste 37 Noroeste 0 -- -- 47
2019-03-28 17:00:00 15.4 25 Noroeste 41 Noroeste 0 -- -- 42
2019-03-28 16:00:00 16.1 23 Noroeste 39 Norte 0 -- -- 41
2019-03-28 15:00:00 16.3 27 Noroeste 44 Noroeste 0 -- -- 37
2019-03-28 14:00:00 15.9 24 Noroeste 41 Oeste 0 -- -- 43
2019-03-28 13:00:00 14.6 31 Oeste 41 Oeste 0 -- -- 48
2019-03-28 12:00:00 13.3 22 Oeste 31 Oeste 0 -- -- 49
2019-03-28 11:00:00 11.1 18 Noroeste 27 Noroeste 0 -- -- 62
2019-03-28 10:00:00 8.9 19 Noroeste 31 Noroeste 0 -- -- 72
2019-03-28 09:00:00 6.9 22 Noroeste 30 Noroeste 0 -- -- 79
2019-03-28 08:00:00 5.2 20 Noroeste 28 Noroeste 0 -- -- 85
2019-03-28 07:00:00 4.1 17 Noroeste 26 Noroeste 0 -- -- 90
2019-03-28 06:00:00 4.3 20 Noroeste 28 Noroeste 0 -- -- 88
2019-03-28 05:00:00 4.4 21 Noroeste 33 Noroeste 0 -- -- 89
2019-03-28 04:00:00 4.3 18 Noroeste 31 Noroeste 0 -- -- 88
2019-03-28 03:00:00 4.8 23 Noroeste 31 Noroeste 0 -- -- 85
2019-03-28 02:00:00 4.5 22 Noroeste 38 Noroeste 0 -- -- 84
2019-03-28 01:00:00 4.7 24 Noroeste 37 Noroeste 0 -- -- 80
2019-03-28 00:00:00 4.9 29 Noroeste 40 Noroeste 0 -- -- 76
2019-03-27 23:00:00 5.1 33 Noroeste 44 Noroeste 0 -- -- 74
2019-03-27 22:00:00 5.6 34 Noroeste 47 Noroeste 0 -- -- 69
2019-03-27 21:00:00 6.8 39 Noroeste 48 Noroeste 0 -- -- 65
2019-03-27 20:00:00 8.6 27 Noroeste 48 Noroeste 0 -- -- 53
2019-03-27 19:00:00 10.2 28 Noroeste 50 Norte 0 -- -- 45
2019-03-27 18:00:00 12.4 41 Norte 55 Norte 0 -- -- 38
2019-03-27 17:00:00 14.4 38 Norte 51 Noroeste 0 -- -- 27
2019-03-27 16:00:00 15.2 25 Noroeste 58 Noroeste 0 -- -- 25
2019-03-27 15:00:00 15.7 34 Noroeste 54 Norte 0 -- -- 20
2019-03-27 14:00:00 15.8 31 Noroeste 46 Noroeste 0 -- -- 21
2019-03-27 13:00:00 15.4 24 Noroeste 44 Noroeste 0 -- -- 26
2019-03-27 12:00:00 13.4 32 Norte 46 Noroeste 0 -- -- 29
2019-03-27 11:00:00 11.7 30 Noroeste 49 Noroeste 0 -- -- 40
2019-03-27 10:00:00 9.5 36 Noroeste 46 Noroeste 0 -- -- 45
2019-03-27 09:00:00 7.3 26 Noroeste 37 Noroeste 0 -- -- 48
2019-03-27 08:00:00 4 19 Noroeste 27 Noroeste 0 -- -- 62
2019-03-27 07:00:00 2.2 6 Noroeste 12 Noroeste 0 -- -- 65
2019-03-27 06:00:00 2 6 Norte 22 Noroeste 0 -- -- 67
2019-03-27 05:00:00 3.4 13 Noroeste 24 Noroeste 0 -- -- 64
2019-03-27 04:00:00 4.3 19 Noroeste 29 Noroeste 0 -- -- 59
2019-03-27 03:00:00 5.2 13 Noroeste 26 Noroeste 0 -- -- 51
2019-03-27 02:00:00 6.6 17 Noroeste 32 Noroeste 0 -- -- 47
2019-03-27 01:00:00 7.9 21 Noroeste 50 Noroeste 0 -- -- 44
2019-03-27 00:00:00 7.3 26 Noroeste 42 Noroeste 0 -- -- 46
2019-03-26 23:00:00 7.3 33 Noroeste 51 Noroeste 0 -- -- 49
2019-03-26 22:00:00 6.2 35 Noroeste 46 Noroeste 0 -- -- 66
2019-03-26 21:00:00 7.1 28 Noroeste 46 Noroeste 0 -- -- 60
2019-03-26 20:00:00 7.3 32 Noroeste 46 Noroeste 0 -- -- 63
2019-03-26 19:00:00 9.2 33 Noroeste 77 Noroeste 0 -- -- 52
2019-03-26 18:00:00 11.4 46 Noroeste 73 Noroeste 0 -- -- 33
2019-03-26 17:00:00 11.6 45 Noroeste 73 Noroeste 0 -- -- 36
2019-03-26 16:00:00 12.1 40 Noroeste 72 Norte 0 -- -- 36
2019-03-26 15:00:00 12.9 39 Noroeste 60 Norte 0 -- -- 33
2019-03-26 14:00:00 13.5 43 Noroeste 78 Norte 0 -- -- 24
2019-03-26 13:00:00 14.1 19 Noroeste 53 Noroeste 0 -- -- 23
2019-03-26 12:00:00 14.3 15 Noroeste 35 Noroeste 0 -- -- 21
2019-03-26 11:00:00 12.9 23 Noroeste 46 Noroeste 0 -- -- 23
2019-03-26 10:00:00 9.6 23 Noroeste 46 Noroeste 0 -- -- 40
2019-03-26 09:00:00 7.1 21 Oeste 41 Noroeste 0 -- -- 49
2019-03-26 08:00:00 3.7 26 Oeste 53 Noroeste 0 -- -- 69
2019-03-26 07:00:00 3.1 43 Noroeste 56 Noroeste 0 -- -- 73
2019-03-26 06:00:00 3.5 37 Noroeste 53 Noroeste 0 -- -- 75
2019-03-26 05:00:00 4.5 37 Noroeste 49 Noroeste 0 -- -- 73
2019-03-26 04:00:00 5.3 35 Noroeste 55 Noroeste 0 -- -- 70
2019-03-26 03:00:00 5.9 33 Noroeste 63 Noroeste 0 -- -- 68
2019-03-26 02:00:00 5.8 33 Noroeste 51 Noroeste 0 -- -- 70
2019-03-26 01:00:00 6.8 36 Noroeste 66 Noroeste 0 -- -- 67
2019-03-26 00:00:00 7.3 47 Noroeste 64 Noroeste 0 -- -- 68
2019-03-25 23:00:00 7.5 33 Noroeste 54 Noroeste 0 -- -- 70
2019-03-25 22:00:00 5.9 32 Noroeste 54 Noroeste 0 -- -- 74
2019-03-25 21:00:00 5.9 37 Noroeste 57 Noroeste 0 -- -- 71
2019-03-25 20:00:00 6.7 39 Noroeste 65 Noroeste 0 -- -- 73
2019-03-25 19:00:00 8 41 Noroeste 66 Noroeste 0 -- -- 69
2019-03-25 18:00:00 9.3 40 Noroeste 66 Noroeste 0 -- -- 63
2019-03-25 17:00:00 10.8 46 Norte 70 Norte 0 -- -- 56
2019-03-25 16:00:00 11.3 47 Noroeste 74 Norte 0 -- -- 48
2019-03-25 15:00:00 11.2 42 Norte 63 Noroeste 0 -- -- 51
2019-03-25 14:00:00 11.2 39 Norte 57 Norte 0 -- -- 52
2019-03-25 13:00:00 10.4 34 Noroeste 56 Norte 0 -- -- 52
2019-03-25 12:00:00 9.6 39 Norte 56 Norte 0 -- -- 56
2019-03-25 11:00:00 9.8 39 Noroeste 76 Noroeste 0 -- -- 57
2019-03-25 10:00:00 8.8 39 Norte 61 Noroeste 0 -- -- 61
2019-03-25 09:00:00 8.7 30 Noroeste 44 Noroeste 0 -- -- 77
2019-03-25 08:00:00 8.1 27 Noroeste 39 Noroeste 0 -- -- 80
2019-03-25 07:00:00 7.6 24 Noroeste 33 Noroeste 0 -- -- 82
2019-03-25 06:00:00 6.4 20 Noroeste 36 Noroeste 0 -- -- 88
2019-03-25 05:00:00 5.9 30 Noroeste 40 Noroeste 0 -- -- 86
2019-03-25 04:00:00 5.9 27 Noroeste 37 Noroeste 0 -- -- 81
2019-03-25 03:00:00 6.6 27 Noroeste 36 Noroeste 0 -- -- 74
2019-03-25 02:00:00 7.1 25 Noroeste 36 Noroeste 0 -- -- 70
2019-03-25 01:00:00 8.1 25 Noroeste 39 Noroeste 0 -- -- 64
2019-03-25 00:00:00 9 28 Noroeste 35 Noroeste 0 -- -- 59
2019-03-24 23:00:00 9.6 27 Noroeste 34 Noroeste 0 -- -- 60
2019-03-24 22:00:00 9.9 21 Noroeste 31 Noroeste 0 -- -- 68
2019-03-24 21:00:00 11.5 24 Noroeste 37 Noroeste 0 -- -- 64
2019-03-24 20:00:00 13.8 25 Noroeste 42 Noroeste 0 -- -- 54
2019-03-24 19:00:00 15.6 33 Noroeste 49 Noroeste 0 -- -- 41
2019-03-24 18:00:00 17.2 34 Noroeste 53 Norte 0 -- -- 35
2019-03-24 17:00:00 18.2 27 Noroeste 47 Norte 0 -- -- 33
2019-03-24 16:00:00 18.9 26 Norte 41 Norte 0 -- -- 30
2019-03-24 15:00:00 19.4 24 Norte 39 Noroeste 0 -- -- 31
2019-03-24 14:00:00 19.7 20 Noroeste 37 Oeste 0 -- -- 31
2019-03-24 13:00:00 18.6 18 Oeste 26 Noroeste 0 -- -- 41
2019-03-24 12:00:00 16.5 18 Noroeste 23 Noroeste 0 -- -- 52
2019-03-24 11:00:00 13.2 14 Noroeste 17 Noroeste 0 -- -- 60
2019-03-24 10:00:00 13.1 3 Oeste 5 Noroeste 0 -- -- 55
2019-03-24 09:00:00 10.2 2 Nordeste 4 Este 0 -- -- 62
2019-03-24 08:00:00 4.3 5 Este 11 Sudeste 0 -- -- 84
2019-03-24 07:00:00 3.7 3 Este 8 Sudeste 0 -- -- 83
2019-03-24 06:00:00 3.6 9 Este 12 Sudeste 0 -- -- 86
2019-03-24 05:00:00 4 10 Sudeste 13 Sudeste 0 -- -- 84
2019-03-24 04:00:00 4.8 7 Sudeste 12 Sudeste 0 -- -- 82
2019-03-24 03:00:00 4.5 9 Sudeste 14 Sudeste 0 -- -- 83
2019-03-24 02:00:00 5 9 Sudeste 12 Sudeste 0 -- -- 81
2019-03-24 01:00:00 5.7 10 Sudeste 13 Sudeste 0 -- -- 79
2019-03-24 00:00:00 6.7 9 Sudeste 14 Sudeste 0 -- -- 76
2019-03-23 23:00:00 7.1 8 Sudeste 12 Sudeste 0 -- -- 75
2019-03-23 22:00:00 8 8 Sudeste 12 Sudeste 0 -- -- 73
2019-03-23 21:00:00 9.8 9 Sudeste 13 Sudeste 0 -- -- 68
2019-03-23 20:00:00 12.9 8 Este 17 Noroeste 0 -- -- 56
2019-03-23 19:00:00 16.8 12 Noroeste 16 Noroeste 0 -- -- 44
2019-03-23 18:00:00 18.9 10 Oeste 13 Oeste 0 -- -- 40
2019-03-23 17:00:00 17.4 10 Noroeste 15 Noroeste 0 -- -- 41
2019-03-23 16:00:00 18.3 9 Noroeste 18 Oeste 0 -- -- 38
2019-03-23 15:00:00 19.9 14 Noroeste 19 Noroeste 0 -- -- 37
2019-03-23 14:00:00 19.1 13 Noroeste 19 Noroeste 0 -- -- 40
2019-03-23 13:00:00 17.7 13 Noroeste 18 Oeste 0 -- -- 42
2019-03-23 12:00:00 16.1 5 Noroeste 9 Noroeste 0 -- -- 46
2019-03-23 11:00:00 12.7 5 Noroeste 10 Noroeste 0 -- -- 58
2019-03-23 10:00:00 10.4 4 Noroeste 8 Noroeste 0 -- -- 61
2019-03-23 09:00:00 8.4 2 Nordeste 8 Este 0 -- -- 69
2019-03-23 08:00:00 3.5 7 Este 12 Sudeste 0 -- -- 84
2019-03-23 07:00:00 1.5 9 Sudeste 12 Sudeste 0 -- -- 87
2019-03-23 06:00:00 2 8 Sudeste 12 Sudeste 0 -- -- 85
2019-03-23 05:00:00 2.8 7 Sudeste 8 Sudeste 0 -- -- 82
2019-03-23 04:00:00 3.1 7 Sudeste 12 Sudeste 0 -- -- 81
2019-03-23 03:00:00 3.2 7 Sudeste 10 Sudeste 0 -- -- 80
2019-03-23 02:00:00 3.6 8 Sudeste 13 Sudeste 0 -- -- 80
2019-03-23 01:00:00 4.4 10 Sudeste 14 Sudeste 0 -- -- 77
2019-03-23 00:00:00 4.6 11 Sudeste 13 Sudeste 0 -- -- 76
2019-03-22 23:00:00 5.4 10 Sudeste 13 Sudeste 0 -- -- 74
2019-03-22 22:00:00 6.1 9 Sudeste 13 Sudeste 0 -- -- 72
2019-03-22 21:00:00 7.4 10 Sudeste 14 Sudeste 0 -- -- 69
2019-03-22 20:00:00 9.4 9 Sudeste 10 Sudeste 0 -- -- 62
2019-03-22 19:00:00 13.7 7 Noroeste 15 Noroeste 0 -- -- 45
2019-03-22 18:00:00 16.4 12 Noroeste 18 Noroeste 0 -- -- 38
2019-03-22 17:00:00 17.7 14 Oeste 21 Oeste 0 -- -- 37
2019-03-22 16:00:00 17.4 12 Noroeste 21 Oeste 0 -- -- 37
2019-03-22 15:00:00 17.3 13 Noroeste 30 Oeste 0 -- -- 36
2019-03-22 14:00:00 17.3 6 Sudoeste 22 Sudeste 0 -- -- 38
2019-03-22 13:00:00 16.6 16 Sudeste 21 Sudeste 0 -- -- 35
2019-03-22 12:00:00 13.9 9 Noroeste 18 Oeste 0 -- -- 52
2019-03-22 11:00:00 11.8 6 Noroeste 10 Noroeste 0 -- -- 57
2019-03-22 10:00:00 10.1 4 Noroeste 6 Noroeste 0 -- -- 60
2019-03-22 09:00:00 7.2 0 Calma 8 Este 0 -- -- 66
2019-03-22 08:00:00 3.1 6 Sudeste 10 Sudeste 0 -- -- 78
2019-03-22 07:00:00 2.2 6 Sudeste 11 Sudeste 0 -- -- 81
2019-03-22 06:00:00 1.6 2 Nordeste 19 Sudeste 0 -- -- 88
2019-03-22 05:00:00 2.1 11 Este 17 Sudeste 0 -- -- 85
2019-03-22 04:00:00 0.9 9 Sudeste 10 Sudeste 0 -- -- 90
2019-03-22 03:00:00 1.9 9 Sudeste 13 Sudeste 0 -- -- 85
2019-03-22 02:00:00 1.5 6 Sudeste 10 Sudeste 0 -- -- 87
2019-03-22 01:00:00 1.7 9 Sudeste 12 Sudeste 0 -- -- 87
2019-03-22 00:00:00 1.8 9 Sudeste 12 Sudeste 0 -- -- 88
2019-03-21 23:00:00 2.4 9 Sudeste 12 Sudeste 0 -- -- 85
2019-03-21 22:00:00 3.7 7 Sudeste 8 Sudeste 0 -- -- 80
2019-03-21 21:00:00 6.3 0 Calma 12 Noroeste 0 -- -- 73
2019-03-21 20:00:00 9.2 12 Norte 21 Noroeste 0 -- -- 60
2019-03-21 19:00:00 10.3 11 Noroeste 16 Noroeste 0 -- -- 59
2019-03-21 18:00:00 13.3 12 Oeste 20 Oeste 0 -- -- 43
2019-03-21 17:00:00 13.9 14 Oeste 22 Oeste 0 -- -- 40
2019-03-21 16:00:00 14.5 13 Noroeste 24 Oeste 0 -- -- 39
2019-03-21 15:00:00 15.1 7 Sur 21 Sudoeste 0 -- -- 36
2019-03-21 14:00:00 14.2 8 Sudoeste 18 Oeste 0 -- -- 38
2019-03-21 13:00:00 12.6 5 Noroeste 18 Noroeste 0 -- -- 42
2019-03-21 12:00:00 10.8 12 Noroeste 24 Noroeste 0 -- -- 50
2019-03-21 11:00:00 9.1 14 Noroeste 21 Noroeste 0 -- -- 56
2019-03-21 10:00:00 6.1 11 Noroeste 15 Noroeste 0 -- -- 72
2019-03-21 09:00:00 5.2 0 Calma 9 Sudeste 0 -- -- 70
2019-03-21 08:00:00 -0.1 5 Este 11 Sudeste 0 -- -- 89
2019-03-21 07:00:00 -1.9 5 Sudeste 10 Sudeste 0 -- -- 92
2019-03-21 06:00:00 -1.5 5 Sudeste 9 Sudeste 0 -- -- 92
2019-03-21 05:00:00 -0.9 5 Sudeste 8 Sudeste 0 -- -- 92
2019-03-21 04:00:00 -0.2 2 Sudeste 5 Este 0 -- -- 91
2019-03-21 03:00:00 1.1 0 Calma 9 Noroeste 0 -- -- 88
2019-03-21 02:00:00 3.1 8 Noroeste 18 Noroeste 0 -- -- 83
2019-03-21 01:00:00 3.7 14 Noroeste 20 Noroeste 0 -- -- 84
2019-03-21 00:00:00 4 13 Noroeste 27 Noroeste 0 -- -- 83
2019-03-20 23:00:00 4.3 23 Noroeste 32 Noroeste 0 -- -- 82
2019-03-20 22:00:00 4.5 25 Noroeste 34 Noroeste 0 -- -- 80
2019-03-20 21:00:00 4.9 25 Noroeste 40 Noroeste 0 -- -- 76
2019-03-20 20:00:00 6.2 26 Noroeste 38 Noroeste 0 -- -- 68
2019-03-20 19:00:00 7.6 24 Noroeste 54 Noroeste 0 -- -- 57
2019-03-20 18:00:00 8.9 32 Noroeste 62 Norte 0 -- -- 50
2019-03-20 17:00:00 9.5 35 Noroeste 69 Noroeste 0 -- -- 49
2019-03-20 16:00:00 10.1 39 Noroeste 73 Noroeste 0 -- -- 43
2019-03-20 15:00:00 10 36 Noroeste 53 Noroeste 0 -- -- 42
2019-03-20 14:00:00 9.7 32 Noroeste 49 Norte 0 -- -- 43
2019-03-20 13:00:00 8.7 38 Noroeste 63 Noroeste 0 -- -- 46
2019-03-20 12:00:00 8.2 42 Noroeste 76 Noroeste 0 -- -- 48
2019-03-20 11:00:00 7.9 39 Noroeste 83 Noroeste 0 -- -- 49
2019-03-20 10:00:00 7.2 35 Noroeste 64 Noroeste 0 -- -- 56
2019-03-20 09:00:00 5.7 29 Noroeste 48 Noroeste 0 -- -- 70
2019-03-20 08:00:00 2.9 23 Noroeste 29 Noroeste 0 -- -- 86
2019-03-20 07:00:00 2.7 24 Noroeste 30 Noroeste 0 -- -- 87
2019-03-20 06:00:00 2.3 15 Noroeste 22 Norte 0 -- -- 87
2019-03-20 05:00:00 3.7 17 Noroeste 26 Noroeste 0 -- -- 79
2019-03-20 04:00:00 4.2 12 Noroeste 30 Noroeste 0 -- -- 78
2019-03-20 03:00:00 4.7 22 Noroeste 37 Noroeste 0 -- -- 77
2019-03-20 02:00:00 5 22 Noroeste 39 Noroeste 0 -- -- 79
2019-03-20 01:00:00 4.8 20 Noroeste 35 Noroeste 0 -- -- 83
2019-03-20 00:00:00 4.3 19 Noroeste 34 Noroeste 0 -- -- 88
2019-03-19 23:00:00 4 18 Noroeste 51 Noroeste 0.4 -- -- 89
2019-03-19 22:00:00 4.4 23 Noroeste 47 Norte 0 -- -- 85
2019-03-19 21:00:00 4.5 30 Noroeste 51 Noroeste 0.2 -- -- 85
2019-03-19 20:00:00 4.6 27 Noroeste 42 Noroeste 0 -- -- 85
2019-03-19 19:00:00 5 28 Noroeste 55 Noroeste 0 -- -- 82
2019-03-19 18:00:00 7 40 Noroeste 64 Noroeste 0 -- -- 59
2019-03-19 17:00:00 7 35 Norte 53 Noroeste 0 -- -- 64
2019-03-19 16:00:00 7.2 37 Norte 55 Noroeste 0 -- -- 64
2019-03-19 15:00:00 7.2 34 Noroeste 53 Norte 0 -- -- 65
2019-03-19 14:00:00 7 27 Noroeste 50 Noroeste 0 -- -- 70
2019-03-19 13:00:00 6.3 28 Noroeste 46 Noroeste 0 -- -- 76
2019-03-19 12:00:00 7.3 28 Norte 42 Norte 0 -- -- 71
2019-03-19 11:00:00 6.5 30 Noroeste 42 Noroeste 0 -- -- 75
2019-03-19 10:00:00 5.8 17 Noroeste 29 Noroeste 0 -- -- 83
2019-03-19 09:00:00 4.3 15 Noroeste 23 Noroeste 0 -- -- 95
2019-03-19 08:00:00 3.6 15 Noroeste 22 Noroeste 0 -- -- 96
2019-03-19 07:00:00 3.3 16 Noroeste 24 Noroeste 0 -- -- 95
2019-03-19 06:00:00 3.1 19 Noroeste 28 Noroeste 0 -- -- 94
2019-03-19 05:00:00 2.9 20 Noroeste 29 Noroeste 0 -- -- 94
2019-03-19 04:00:00 2.8 17 Noroeste 32 Noroeste 0.2 -- -- 95
2019-03-19 03:00:00 3.1 23 Noroeste 32 Oeste 0 -- -- 95
2019-03-19 02:00:00 3.6 22 Noroeste 32 Noroeste 0 -- -- 95
2019-03-19 01:00:00 3.8 20 Noroeste 27 Noroeste 0 -- -- 93
2019-03-19 00:00:00 3.8 22 Noroeste 31 Noroeste 0 -- -- 91